createdAt,value
2023-02-22T00:02:11.302Z,98793.06
2023-02-22T00:04:41.777Z,98830.16
2023-02-22T00:07:09.042Z,98826.22
2023-02-22T00:09:36.265Z,98814.94
2023-02-22T00:12:03.716Z,98825.09
2023-02-22T00:14:30.783Z,98846.16
2023-02-22T00:16:59.989Z,98856.56
2023-02-22T00:19:31.221Z,98821.28
2023-02-22T00:21:58.771Z,98841.56
2023-02-22T00:24:29.546Z,98844.53
2023-02-22T00:26:56.928Z,98844.34
2023-02-22T00:29:26.217Z,98841.91
2023-02-22T00:31:54.215Z,98853.16
2023-02-22T00:34:24.362Z,98860.03
2023-02-22T00:36:51.910Z,98865.94
2023-02-22T00:39:19.593Z,98842.41
2023-02-22T00:41:46.919Z,98842.06
2023-02-22T00:44:14.802Z,98832.75
2023-02-22T00:46:42.050Z,98857.28
2023-02-22T00:49:09.148Z,98824.09
2023-02-22T00:51:37.074Z,98826.72
2023-02-22T00:54:05.517Z,98844.94
2023-02-22T00:56:34.568Z,98851.69
2023-02-22T00:59:02.262Z,98847.13
2023-02-22T01:01:32.184Z,98861.84
2023-02-22T01:03:59.405Z,98835.69
2023-02-22T01:06:26.931Z,98832.63
2023-02-22T01:08:54.313Z,98847.63
2023-02-22T01:11:22.479Z,98860.53
2023-02-22T01:13:49.942Z,98836.00
2023-02-22T01:16:17.064Z,98834.06
2023-02-22T01:18:44.349Z,98841.88
2023-02-22T01:21:11.938Z,98846.47
2023-02-22T01:23:41.805Z,98843.03
2023-02-22T01:26:09.768Z,98855.44
2023-02-22T01:28:38.271Z,98864.78
2023-02-22T01:31:06.563Z,98854.31
2023-02-22T01:33:34.218Z,98853.97
2023-02-22T01:36:01.255Z,98851.69
2023-02-22T01:38:28.413Z,98872.63
2023-02-22T01:40:55.741Z,98844.03
2023-02-22T01:43:30.002Z,98867.56
2023-02-22T01:46:22.556Z,98861.19
2023-02-22T01:49:02.511Z,98844.34
2023-02-22T01:51:52.809Z,98842.38
2023-02-22T01:54:32.385Z,98860.84
2023-02-22T01:57:03.949Z,98864.44
2023-02-22T01:59:34.509Z,98864.41
2023-02-22T02:02:02.297Z,98853.00
2023-02-22T02:04:29.484Z,98904.53
2023-02-22T02:07:01.363Z,98884.72
2023-02-22T02:09:40.026Z,98899.78
2023-02-22T02:12:10.002Z,98885.38
2023-02-22T02:14:40.587Z,98892.09
2023-02-22T02:17:10.284Z,98899.78
2023-02-22T02:20:00.667Z,98891.91
2023-02-22T02:22:38.588Z,98905.50
2023-02-22T02:25:24.712Z,98904.84
2023-02-22T02:28:21.160Z,98907.41
2023-02-22T02:30:55.447Z,98909.34
2023-02-22T02:33:35.008Z,98879.34
2023-02-22T02:36:15.780Z,98881.78
2023-02-22T02:38:46.487Z,98908.22
2023-02-22T02:41:21.892Z,98923.47
2023-02-22T02:43:54.960Z,98921.03
2023-02-22T02:46:51.483Z,98911.91
2023-02-22T02:49:27.497Z,98909.97
2023-02-22T02:51:56.649Z,98895.44
2023-02-22T02:54:25.218Z,98910.00
2023-02-22T02:56:53.054Z,98924.03
2023-02-22T02:59:32.928Z,98930.91
2023-02-22T03:02:36.099Z,98937.59
2023-02-22T03:05:07.568Z,98933.88
2023-02-22T03:08:01.473Z,98930.31
2023-02-22T03:11:02.295Z,98941.28
2023-02-22T03:13:40.108Z,98943.22
2023-02-22T03:16:52.473Z,98951.53
2023-02-22T03:19:38.620Z,98931.94
2023-02-22T03:22:19.009Z,98905.38
2023-02-22T03:25:10.726Z,98939.34
2023-02-22T03:27:48.515Z,98955.19
2023-02-22T03:30:27.187Z,98943.69
2023-02-22T03:33:09.298Z,98933.53
2023-02-22T03:35:50.133Z,98967.69
2023-02-22T03:38:21.594Z,98942.69
2023-02-22T03:40:59.465Z,98965.75
2023-02-22T03:43:32.070Z,98963.88
2023-02-22T03:46:03.949Z,98961.53
2023-02-22T03:48:58.733Z,98976.28
2023-02-22T03:51:30.007Z,98981.91
2023-02-22T03:54:00.802Z,98966.78
2023-02-22T03:56:47.589Z,98985.25
2023-02-22T03:59:17.861Z,98962.56
2023-02-22T04:01:44.901Z,98982.97
2023-02-22T04:04:12.072Z,98989.72
2023-02-22T04:06:40.118Z,98993.44
2023-02-22T04:09:08.730Z,99011.47
2023-02-22T04:11:36.948Z,99007.97
2023-02-22T04:14:05.768Z,98986.75
2023-02-22T04:16:33.211Z,99007.84
2023-02-22T04:19:01.064Z,98991.56
2023-02-22T04:21:29.050Z,99033.16
2023-02-22T04:23:56.409Z,99023.53
2023-02-22T04:26:24.418Z,99047.59
2023-02-22T04:28:57.106Z,99059.56
2023-02-22T04:31:25.978Z,99037.88
2023-02-22T04:33:55.214Z,99046.91
2023-02-22T04:36:28.585Z,99072.13
2023-02-22T04:38:55.860Z,99091.19
2023-02-22T04:41:25.309Z,99076.09
2023-02-22T04:43:53.354Z,99093.16
2023-02-22T04:46:23.100Z,99099.69
2023-02-22T04:48:52.409Z,99084.63
2023-02-22T04:51:22.098Z,99082.13
2023-02-22T04:54:01.146Z,99109.88
2023-02-22T04:56:29.437Z,99122.00
2023-02-22T04:58:56.536Z,99106.72
2023-02-22T05:01:23.869Z,99136.06
2023-02-22T05:03:51.488Z,99143.00
2023-02-22T05:06:19.175Z,99167.31
2023-02-22T05:08:46.499Z,99170.03
2023-02-22T05:11:13.801Z,99165.53
2023-02-22T05:13:40.899Z,99160.69
2023-02-22T05:16:08.197Z,99200.91
2023-02-22T05:18:35.457Z,99200.13
2023-02-22T05:21:02.690Z,99208.44
2023-02-22T05:23:29.847Z,99222.31
2023-02-22T05:25:57.252Z,99231.56
2023-02-22T05:28:24.448Z,99259.91
2023-02-22T05:30:51.845Z,99271.38
2023-02-22T05:33:20.425Z,99269.72
2023-02-22T05:35:47.633Z,99286.59
2023-02-22T05:38:15.451Z,99271.63
2023-02-22T05:40:43.233Z,99293.69
2023-02-22T05:43:11.646Z,99309.66
2023-02-22T05:45:38.776Z,99314.94
2023-02-22T05:48:06.195Z,99303.94
2023-02-22T05:50:34.053Z,99319.34
2023-02-22T05:53:01.921Z,99322.13
2023-02-22T05:55:29.281Z,99315.00
2023-02-22T05:57:56.709Z,99334.56
2023-02-22T06:00:27.507Z,99367.31
2023-02-22T06:02:55.866Z,99355.22
2023-02-22T06:05:23.955Z,99378.06
2023-02-22T06:07:51.385Z,99376.41
2023-02-22T06:10:18.844Z,99377.50
2023-02-22T06:12:47.419Z,99402.81
2023-02-22T06:15:16.402Z,99391.50
2023-02-22T06:17:44.112Z,99396.09
2023-02-22T06:20:13.523Z,99385.63
2023-02-22T06:22:43.498Z,99427.09
2023-02-22T06:25:15.343Z,99422.13
2023-02-22T06:27:42.664Z,99442.22
2023-02-22T06:30:13.303Z,99413.34
2023-02-22T06:32:40.787Z,99430.69
2023-02-22T06:35:08.534Z,99413.91
2023-02-22T06:37:37.227Z,99429.88
2023-02-22T06:40:05.639Z,99424.59
2023-02-22T06:42:33.378Z,99455.94
2023-02-22T06:45:00.872Z,99459.22
2023-02-22T06:47:30.732Z,99444.59
2023-02-22T06:49:59.861Z,99484.47
2023-02-22T06:52:28.043Z,99430.56
2023-02-22T06:54:55.217Z,99447.91
2023-02-22T06:57:27.126Z,99488.88
2023-02-22T06:59:54.536Z,99488.22
2023-02-22T07:02:21.669Z,99460.88
2023-02-22T07:04:48.851Z,99471.31
2023-02-22T07:07:16.132Z,99463.06
2023-02-22T07:09:48.668Z,99515.88
2023-02-22T07:12:15.993Z,99525.25
2023-02-22T07:14:43.043Z,99513.13
2023-02-22T07:17:11.875Z,99523.63
2023-02-22T07:19:39.067Z,99537.84
2023-02-22T07:22:06.513Z,99554.38
2023-02-22T07:24:35.450Z,99541.25
2023-02-22T07:27:02.953Z,99555.03
2023-02-22T07:29:31.748Z,99547.03
2023-02-22T07:31:59.109Z,99540.16
2023-02-22T07:34:26.205Z,99571.00
2023-02-22T07:36:53.305Z,99566.50
2023-02-22T07:39:22.846Z,99517.16
2023-02-22T07:41:50.031Z,99564.84
2023-02-22T07:44:23.896Z,99569.69
2023-02-22T07:46:51.120Z,99620.09
2023-02-22T07:49:18.520Z,99571.31
2023-02-22T07:51:45.905Z,99596.13
2023-02-22T07:54:13.238Z,99586.19
2023-02-22T07:56:49.884Z,99608.56
2023-02-22T07:59:17.341Z,99628.06
2023-02-22T08:01:44.418Z,99612.44
2023-02-22T08:04:11.892Z,99607.97
2023-02-22T08:06:39.132Z,99613.41
2023-02-22T08:09:06.270Z,99613.53
2023-02-22T08:11:33.420Z,99618.59
2023-02-22T08:14:00.718Z,99643.91
2023-02-22T08:16:27.805Z,99645.75
2023-02-22T08:18:55.695Z,99634.94
2023-02-22T08:21:22.887Z,99626.66
2023-02-22T08:23:56.702Z,99639.94
2023-02-22T08:26:25.714Z,99641.00
2023-02-22T08:28:53.496Z,99638.00
2023-02-22T08:31:20.988Z,99631.41
2023-02-22T08:33:50.102Z,99675.88
2023-02-22T08:36:19.155Z,99672.78
2023-02-22T08:38:56.903Z,99652.63
2023-02-22T08:41:26.187Z,99692.81
2023-02-22T08:43:53.680Z,99682.16
2023-02-22T08:46:30.162Z,99697.34
2023-02-22T08:48:57.865Z,99710.59
2023-02-22T08:51:29.477Z,99751.72
2023-02-22T08:53:56.637Z,99798.66
2023-02-22T08:56:23.673Z,99768.31
2023-02-22T08:58:52.050Z,99765.94
2023-02-22T09:01:31.453Z,99801.78
2023-02-22T09:03:59.976Z,99764.25
2023-02-22T09:06:30.382Z,99802.78
2023-02-22T09:08:57.794Z,99789.81
2023-02-22T09:11:32.587Z,99738.13
2023-02-22T09:14:05.961Z,99737.94
2023-02-22T09:16:38.877Z,99768.25
2023-02-22T09:19:07.809Z,99734.56
2023-02-22T09:21:35.600Z,99746.16
2023-02-22T09:24:09.485Z,99828.03
2023-02-22T09:26:39.804Z,99802.91
2023-02-22T09:29:12.866Z,99757.81
2023-02-22T09:31:41.470Z,99795.94
2023-02-22T09:34:16.062Z,99852.19
2023-02-22T09:36:44.368Z,99788.81
2023-02-22T09:39:15.559Z,99850.72
2023-02-22T09:41:59.544Z,99827.72
2023-02-22T09:44:59.100Z,99829.19
2023-02-22T09:47:42.172Z,99793.19
2023-02-22T09:50:31.618Z,99817.53
2023-02-22T09:53:37.941Z,99812.06
2023-02-22T09:56:16.884Z,99831.34
2023-02-22T09:59:00.391Z,99830.75
2023-02-22T10:02:09.242Z,99850.53
2023-02-22T10:04:45.084Z,99813.25
2023-02-22T10:07:34.248Z,99845.06
2023-02-22T10:10:06.837Z,99826.34
2023-02-22T10:12:55.747Z,99858.97
2023-02-22T10:16:07.056Z,99872.34
2023-02-22T10:18:51.344Z,99874.44
2023-02-22T10:21:33.792Z,99841.69
2023-02-22T10:24:27.728Z,99862.66
2023-02-22T10:26:59.062Z,99881.59
2023-02-22T10:29:54.613Z,99872.00
2023-02-22T10:32:31.513Z,99858.75
2023-02-22T10:35:01.030Z,99881.63
2023-02-22T10:37:35.630Z,99909.59
2023-02-22T10:40:18.445Z,99927.41
2023-02-22T10:42:45.611Z,99904.00
2023-02-22T10:45:26.932Z,99909.50
2023-02-22T10:47:59.319Z,99912.78
2023-02-22T10:50:29.730Z,99931.28
2023-02-22T10:52:58.422Z,99912.59
2023-02-22T10:55:25.979Z,99897.13
2023-02-22T10:58:04.877Z,99900.81
2023-02-22T11:00:40.447Z,99929.53
2023-02-22T11:03:22.599Z,99932.25
2023-02-22T11:05:50.998Z,99977.84
2023-02-22T11:08:21.041Z,99958.44
2023-02-22T11:10:50.535Z,99913.06
2023-02-22T11:13:19.875Z,99963.84
2023-02-22T11:15:47.364Z,99966.00
2023-02-22T11:18:34.028Z,99915.31
2023-02-22T11:21:14.083Z,99957.06
2023-02-22T11:23:45.075Z,99967.50
2023-02-22T11:26:20.529Z,99948.19
2023-02-22T11:28:56.302Z,99967.81
2023-02-22T11:31:27.708Z,99992.53
2023-02-22T11:36:37.947Z,99962.94
2023-02-22T11:39:20.683Z,99964.50
2023-02-22T11:41:50.966Z,99952.38
2023-02-22T11:44:23.944Z,99956.28
2023-02-22T11:46:55.887Z,99978.81
2023-02-22T11:49:35.360Z,99984.50
2023-02-22T11:52:14.934Z,99990.53
2023-02-22T11:55:06.741Z,99990.72
2023-02-22T11:57:41.332Z,100014.19
2023-02-22T12:00:51.428Z,100010.03
2023-02-22T12:03:46.467Z,100015.50
2023-02-22T12:06:19.923Z,100014.75
2023-02-22T12:08:57.254Z,100006.28
2023-02-22T12:11:47.238Z,99995.69
2023-02-22T12:14:34.779Z,100018.19
2023-02-22T12:17:21.170Z,99995.50
2023-02-22T12:19:52.584Z,100044.50
2023-02-22T12:22:36.153Z,100033.38
2023-02-22T12:25:21.229Z,100050.66
2023-02-22T12:28:00.945Z,100042.84
2023-02-22T12:30:34.329Z,100050.47
2023-02-22T12:33:20.196Z,100082.94
2023-02-22T12:35:54.857Z,100053.28
2023-02-22T12:38:33.945Z,100072.00
2023-02-22T12:41:09.226Z,100080.22
2023-02-22T12:43:57.039Z,100112.19
2023-02-22T12:46:53.621Z,100081.16
2023-02-22T12:49:48.255Z,100081.34
2023-02-22T12:52:47.223Z,100098.28
2023-02-22T12:55:34.518Z,100105.97
2023-02-22T12:58:27.156Z,100113.31
2023-02-22T13:01:12.304Z,100081.81
2023-02-22T13:03:44.456Z,100090.53
2023-02-22T13:06:17.854Z,100090.47
2023-02-22T13:09:14.566Z,100132.81
2023-02-22T13:12:20.348Z,100095.19
2023-02-22T13:14:53.749Z,100119.63
2023-02-22T13:17:42.353Z,100126.81
2023-02-22T13:20:23.628Z,100143.25
2023-02-22T13:23:23.900Z,100138.63
2023-02-22T13:26:08.364Z,100125.63
2023-02-22T13:28:58.985Z,100141.81
2023-02-22T13:31:56.342Z,100143.78
2023-02-22T13:34:33.799Z,100172.19
2023-02-22T13:37:35.713Z,100170.06
2023-02-22T13:40:21.783Z,100171.97
2023-02-22T13:43:19.585Z,100172.03
2023-02-22T13:46:02.714Z,100170.41
2023-02-22T13:49:00.768Z,100170.44
2023-02-22T13:51:39.014Z,100159.94
2023-02-22T13:54:28.832Z,100172.31
2023-02-22T13:56:57.888Z,100169.34
2023-02-22T13:59:37.231Z,100174.66
2023-02-22T14:02:07.995Z,100181.75
2023-02-22T14:04:39.071Z,100185.44
2023-02-22T14:07:18.734Z,100191.75
2023-02-22T14:09:50.619Z,100181.41
2023-02-22T14:12:30.273Z,100202.13
2023-02-22T14:15:28.795Z,100187.22
2023-02-22T14:17:57.063Z,100202.69
2023-02-22T14:20:37.074Z,100196.94
2023-02-22T14:23:35.223Z,100215.44
2023-02-22T14:26:13.420Z,100209.78
2023-02-22T14:28:58.262Z,100187.75
2023-02-22T14:31:56.443Z,100196.09
2023-02-22T14:34:49.580Z,100221.59
2023-02-22T14:37:26.894Z,100216.47
2023-02-22T14:40:12.988Z,100212.47
2023-02-22T14:42:53.342Z,100215.81
2023-02-22T14:45:25.017Z,100215.50
2023-02-22T14:48:01.387Z,100235.53
2023-02-22T14:50:42.264Z,100230.94
2023-02-22T14:53:34.111Z,100245.69
2023-02-22T14:56:14.816Z,100215.13
2023-02-22T14:58:52.273Z,100234.34
2023-02-22T15:01:20.455Z,100231.38
2023-02-22T15:03:53.619Z,100254.59
2023-02-22T15:06:28.902Z,100247.06
2023-02-22T15:09:14.528Z,100265.06
2023-02-22T15:11:42.084Z,100266.50
2023-02-22T15:14:26.279Z,100281.31
2023-02-22T15:16:57.908Z,100265.59
2023-02-22T15:19:35.127Z,100285.84
2023-02-22T15:22:03.741Z,100261.69
2023-02-22T15:24:36.587Z,100276.97
2023-02-22T15:27:16.030Z,100295.28
2023-02-22T15:29:45.269Z,100277.66
2023-02-22T15:32:27.824Z,100312.75
2023-02-22T15:34:56.665Z,100261.53
2023-02-22T15:37:25.815Z,100283.53
2023-02-22T15:39:59.681Z,100311.84
2023-02-22T15:42:29.814Z,100326.03
2023-02-22T15:44:58.320Z,100288.13
2023-02-22T15:47:28.011Z,100301.72
2023-02-22T15:50:16.517Z,100316.72
2023-02-22T15:52:58.252Z,100318.47
2023-02-22T15:55:37.644Z,100321.38
2023-02-22T15:58:15.374Z,100301.06
2023-02-22T16:00:46.327Z,100331.19
2023-02-22T16:03:23.953Z,100312.31
2023-02-22T16:05:55.807Z,100317.47
2023-02-22T16:08:34.787Z,100333.59
2023-02-22T16:11:13.763Z,100331.69
2023-02-22T16:13:42.679Z,100325.28
2023-02-22T16:16:24.869Z,100338.41
2023-02-22T16:18:52.529Z,100341.31
2023-02-22T16:21:23.052Z,100350.28
2023-02-22T16:24:01.330Z,100356.94
2023-02-22T16:26:35.182Z,100350.34
2023-02-22T16:29:06.284Z,100343.78
2023-02-22T16:31:38.672Z,100357.03
2023-02-22T16:34:08.665Z,100365.47
2023-02-22T16:36:51.648Z,100350.56
2023-02-22T16:39:27.583Z,100358.16
2023-02-22T16:42:01.348Z,100328.09
2023-02-22T16:44:28.935Z,100354.97
2023-02-22T16:46:59.305Z,100354.38
2023-02-22T16:49:26.863Z,100379.59
2023-02-22T16:51:58.977Z,100371.84
2023-02-22T16:54:30.374Z,100361.25
2023-02-22T16:57:02.279Z,100356.25
2023-02-22T16:59:37.080Z,100347.06
2023-02-22T17:02:07.974Z,100358.50
2023-02-22T17:04:35.313Z,100347.50
2023-02-22T17:07:05.249Z,100343.41
2023-02-22T17:09:33.173Z,100361.59
2023-02-22T17:12:00.780Z,100342.34
2023-02-22T17:14:36.896Z,100364.47
2023-02-22T17:17:04.162Z,100355.56
2023-02-22T17:19:31.240Z,100341.16
2023-02-22T17:21:59.351Z,100360.38
2023-02-22T17:24:29.583Z,100339.50
2023-02-22T17:26:59.353Z,100358.28
2023-02-22T17:29:28.787Z,100371.97
2023-02-22T17:31:56.482Z,100370.78
2023-02-22T17:34:23.982Z,100355.63
2023-02-22T17:36:51.059Z,100355.84
2023-02-22T17:39:18.166Z,100352.81
2023-02-22T17:41:45.296Z,100344.63
2023-02-22T17:44:12.961Z,100371.06
2023-02-22T17:46:45.937Z,100371.94
2023-02-22T17:49:14.233Z,100364.47
2023-02-22T17:51:49.605Z,100365.84
2023-02-22T17:54:18.199Z,100375.25
2023-02-22T17:56:46.742Z,100374.19
2023-02-22T17:59:14.047Z,100379.50
2023-02-22T18:01:44.196Z,100373.97
2023-02-22T18:04:11.830Z,100385.44
2023-02-22T18:06:40.237Z,100390.22
2023-02-22T18:09:10.697Z,100382.00
2023-02-22T18:11:39.744Z,100395.94
2023-02-22T18:14:11.070Z,100391.84
2023-02-22T18:16:39.586Z,100397.69
2023-02-22T18:19:07.037Z,100384.81
2023-02-22T18:21:34.458Z,100385.59
2023-02-22T18:24:01.680Z,100413.50
2023-02-22T18:26:29.159Z,100397.69
2023-02-22T18:28:56.517Z,100413.28
2023-02-22T18:31:24.198Z,100382.50
2023-02-22T18:33:52.865Z,100421.59
2023-02-22T18:36:24.857Z,100416.94
2023-02-22T18:38:53.682Z,100410.72
2023-02-22T18:41:28.500Z,100412.38
2023-02-22T18:43:58.060Z,100382.84
2023-02-22T18:46:33.803Z,100400.88
2023-02-22T18:49:00.975Z,100400.44
2023-02-22T18:51:28.848Z,100412.00
2023-02-22T18:54:00.758Z,100400.69
2023-02-22T18:56:30.311Z,100428.59
2023-02-22T18:59:01.597Z,100425.50
2023-02-22T19:01:29.681Z,100411.03
2023-02-22T19:03:57.351Z,100413.63
2023-02-22T19:06:24.731Z,100416.09
2023-02-22T19:08:52.219Z,100422.03
2023-02-22T19:11:24.450Z,100398.72
2023-02-22T19:13:56.666Z,100429.38
2023-02-22T19:16:27.534Z,100427.09
2023-02-22T19:18:58.285Z,100432.03
2023-02-22T19:21:27.968Z,100442.97
2023-02-22T19:24:00.726Z,100436.16
2023-02-22T19:26:36.138Z,100410.56
2023-02-22T19:29:09.487Z,100424.25
2023-02-22T19:31:37.203Z,100425.44
2023-02-22T19:34:09.661Z,100426.91
2023-02-22T19:36:40.894Z,100432.94
2023-02-22T19:39:08.748Z,100421.84
2023-02-22T19:41:36.088Z,100403.00
2023-02-22T19:44:03.190Z,100408.81
2023-02-22T19:46:30.623Z,100421.53
2023-02-22T19:48:58.436Z,100440.13
2023-02-22T19:51:28.801Z,100441.94
2023-02-22T19:54:02.770Z,100440.59
2023-02-22T19:56:31.270Z,100452.06
2023-02-22T19:59:01.590Z,100457.41
2023-02-22T20:01:33.569Z,100452.09
2023-02-22T20:04:06.171Z,100461.53
2023-02-22T20:06:42.498Z,100463.16
2023-02-22T20:09:14.312Z,100474.59
2023-02-22T20:11:42.725Z,100450.56
2023-02-22T20:14:17.589Z,100464.94
2023-02-22T20:16:44.876Z,100455.66
2023-02-22T20:19:13.771Z,100433.91
2023-02-22T20:21:41.258Z,100496.28
2023-02-22T20:24:12.152Z,100482.28
2023-02-22T20:26:40.120Z,100470.81
2023-02-22T20:29:09.323Z,100476.25
2023-02-22T20:31:39.283Z,100469.75
2023-02-22T20:34:06.529Z,100445.44
2023-02-22T20:36:36.714Z,100472.91
2023-02-22T20:39:08.482Z,100485.28
2023-02-22T20:41:37.228Z,100442.75
2023-02-22T20:44:07.154Z,100497.28
2023-02-22T20:46:38.027Z,100484.06
2023-02-22T20:49:08.313Z,100500.00
2023-02-22T20:51:35.652Z,100497.28
2023-02-22T20:54:03.355Z,100483.88
2023-02-22T20:56:34.292Z,100479.06
2023-02-22T20:59:03.597Z,100496.88
2023-02-22T21:01:31.629Z,100502.31
2023-02-22T21:04:05.581Z,100511.53
2023-02-22T21:06:54.629Z,100500.63
2023-02-22T21:09:22.190Z,100494.56
2023-02-22T21:11:50.626Z,100487.22
2023-02-22T21:14:19.874Z,100503.16
2023-02-22T21:16:51.147Z,100498.56
2023-02-22T21:19:25.600Z,100500.22
2023-02-22T21:21:58.135Z,100522.69
2023-02-22T21:24:27.119Z,100510.50
2023-02-22T21:26:55.978Z,100501.94
2023-02-22T21:29:24.970Z,100540.50
2023-02-22T21:31:53.313Z,100538.81
2023-02-22T21:34:22.844Z,100526.03
2023-02-22T21:36:51.201Z,100534.41
2023-02-22T21:39:18.448Z,100544.06
2023-02-22T21:41:48.689Z,100557.28
2023-02-22T21:44:16.956Z,100558.13
2023-02-22T21:46:44.053Z,100534.59
2023-02-22T21:49:11.971Z,100557.47
2023-02-22T21:51:39.953Z,100554.50
2023-02-22T21:54:09.302Z,100565.22
2023-02-22T21:56:41.481Z,100561.44
2023-02-22T21:59:13.799Z,100575.69
2023-02-22T22:01:47.300Z,100550.94
2023-02-22T22:04:19.833Z,100569.19
2023-02-22T22:06:55.059Z,100570.84
2023-02-22T22:09:23.799Z,100545.44
2023-02-22T22:11:54.378Z,100580.09
2023-02-22T22:14:26.241Z,100588.47
2023-02-22T22:16:59.348Z,100566.84
2023-02-22T22:19:29.521Z,100559.66
2023-02-22T22:21:58.341Z,100579.00
2023-02-22T22:24:28.799Z,100551.88
2023-02-22T22:26:56.088Z,100559.63
2023-02-22T22:29:28.610Z,100584.13
2023-02-22T22:31:56.731Z,100605.72
2023-02-22T22:34:30.614Z,100574.88
2023-02-22T22:36:58.282Z,100587.00
2023-02-22T22:39:27.198Z,100572.66
2023-02-22T22:41:54.807Z,100608.03
2023-02-22T22:44:24.779Z,100605.97
2023-02-22T22:46:54.995Z,100603.03
2023-02-22T22:49:25.675Z,100587.72
2023-02-22T22:51:54.073Z,100613.41
2023-02-22T22:54:21.358Z,100627.03
2023-02-22T22:56:48.487Z,100635.78
2023-02-22T22:59:15.601Z,100620.28
2023-02-22T23:01:47.036Z,100608.69
2023-02-22T23:04:17.328Z,100632.03
2023-02-22T23:06:47.337Z,100622.81
2023-02-22T23:09:18.876Z,100629.03
2023-02-22T23:11:53.547Z,100650.78
2023-02-22T23:14:26.709Z,100636.91
2023-02-22T23:17:15.552Z,100635.16
2023-02-22T23:19:45.327Z,100632.75
2023-02-22T23:22:14.440Z,100655.44
2023-02-22T23:24:44.518Z,100621.88
2023-02-22T23:27:12.451Z,100644.84
2023-02-22T23:29:41.625Z,100661.63
2023-02-22T23:32:12.147Z,100653.13
2023-02-22T23:34:41.841Z,100659.59
2023-02-22T23:37:10.920Z,100668.03
2023-02-22T23:39:38.578Z,100668.84
2023-02-22T23:42:09.044Z,100664.84
2023-02-22T23:44:36.415Z,100641.91
2023-02-22T23:47:04.106Z,100678.41
2023-02-22T23:49:36.046Z,100639.41
2023-02-22T23:52:05.863Z,100684.91
2023-02-22T23:54:36.618Z,100674.03
2023-02-22T23:57:05.813Z,100692.09
2023-02-22T23:59:33.879Z,100685.75
